»·PEaware :: ASA1944 KSAN-KSEA

ASA1944 :: KSAN-KSEA

FLIGHT INFORMATION

Flight Status: Arrived
Operator:
Alaska Airlines
More flights by this operator :: More flights under this callsign
Pilot: Sean T. (30125)
Aircraft: BOEING 737-800
(B738)
More flights by this aircraft type
Origin: KSAN San Diego Intl-Lindbergh
United States
Destination: KSEA Seattle-Tacoma Intl
United States
More flights between these airports :: More routes between these airports
Route: PADRZ2 EHF SHIMR BTG HAWKZ7
File this flight plan on PilotEdge
Remarks:
Altitude:
(Current/Filed)
30,000ft
Speed:
(Current/Filed)
290kts
Departed: 04-Feb-21 06:14 PM
Arrived: 04-Feb-21 08:30 PM
Distance/Time
Traveled:
913nm/2:16
Distance/Time
To Go:
Arrived

Flight Plot

Page will automatically refresh every two minutes.

Flight plan parsing failed; only flown route is shown


Map Options




Map Legend


Flown Route
Filed Route
Departure Airport
Arrival Airport
Navaid (VOR, NDB)
Fix

Horizontal Profiles

Position Reports

Time Latitude Longitude Heading Altitude Ground
Speed
04-Feb-21 18:13 35.538335 -119.110302 340 29999ft 435kts
04-Feb-21 18:14 35.636168 -119.148739 343 29999ft 435kts
04-Feb-21 18:15 35.735248 -119.184769 343 29999ft 435kts
04-Feb-21 18:15 35.819762 -119.214902 344 29999ft 435kts
04-Feb-21 18:17 35.938735 -119.257117 344 29999ft 435kts
04-Feb-21 18:18 36.044047 -119.294489 344 29999ft 435kts
04-Feb-21 18:18 36.127246 -119.324063 344 29999ft 435kts
04-Feb-21 18:20 36.243987 -119.365661 344 29999ft 435kts
04-Feb-21 18:20 36.328140 -119.395724 344 29999ft 435kts
04-Feb-21 18:22 36.445530 -119.437774 344 29999ft 435kts
04-Feb-21 18:22 36.528696 -119.467643 344 29999ft 435kts
04-Feb-21 18:23 36.629493 -119.503935 344 29999ft 435kts
04-Feb-21 18:24 36.725722 -119.538674 344 29999ft 435kts
04-Feb-21 18:25 36.823205 -119.573958 344 29999ft 435kts
04-Feb-21 18:26 36.923193 -119.610247 344 29999ft 435kts
04-Feb-21 18:27 37.024916 -119.647266 344 29999ft 435kts
04-Feb-21 18:28 37.118394 -119.681376 343 29999ft 435kts
04-Feb-21 18:29 37.213315 -119.716102 343 29999ft 435kts
04-Feb-21 18:30 37.309193 -119.751281 343 29999ft 435kts
04-Feb-21 18:31 37.401673 -119.785294 343 29999ft 435kts
04-Feb-21 18:32 37.499467 -119.821355 343 29999ft 435kts
04-Feb-21 18:33 37.595894 -119.857008 343 29999ft 435kts
04-Feb-21 18:34 37.694925 -119.893723 343 29999ft 435kts
04-Feb-21 18:35 37.794233 -119.930644 343 29999ft 435kts
04-Feb-21 18:36 37.895660 -119.968459 343 29999ft 435kts
04-Feb-21 18:37 37.996204 -120.006053 343 29999ft 435kts
04-Feb-21 18:38 38.097608 -120.044077 343 29999ft 435kts
04-Feb-21 18:39 38.195323 -120.080821 343 29999ft 435kts
04-Feb-21 18:40 38.294126 -120.114448 346 29999ft 435kts
04-Feb-21 18:41 38.392995 -120.143709 347 29999ft 435kts
04-Feb-21 18:42 38.491862 -120.172994 347 29999ft 435kts
04-Feb-21 18:43 38.590427 -120.202263 347 29999ft 435kts
04-Feb-21 18:44 38.691052 -120.232227 347 29999ft 435kts
04-Feb-21 18:45 38.796582 -120.263743 347 29999ft 435kts
04-Feb-21 18:46 38.901121 -120.295058 347 29999ft 435kts
04-Feb-21 18:47 39.006438 -120.326701 347 29999ft 435kts
04-Feb-21 18:48 39.111844 -120.358467 347 29999ft 435kts
04-Feb-21 18:49 39.219501 -120.391013 347 29999ft 435kts
04-Feb-21 18:50 39.326755 -120.423543 347 29999ft 435kts
04-Feb-21 18:51 39.433703 -120.456092 346 29999ft 435kts
04-Feb-21 18:52 39.540938 -120.488827 347 29999ft 435kts
04-Feb-21 18:53 39.653075 -120.523155 347 29999ft 435kts
04-Feb-21 18:54 39.763434 -120.557052 347 29999ft 435kts
04-Feb-21 18:55 39.876236 -120.591816 347 29999ft 435kts
04-Feb-21 18:56 39.988144 -120.626423 347 29999ft 435kts
04-Feb-21 18:57 40.096114 -120.659922 346 29999ft 435kts
04-Feb-21 18:58 40.202110 -120.692915 346 29999ft 435kts
04-Feb-21 18:59 40.309671 -120.726502 346 29999ft 435kts
04-Feb-21 19:00 40.415553 -120.759672 346 29999ft 435kts
04-Feb-21 19:01 40.521131 -120.792855 346 29999ft 435kts
04-Feb-21 19:02 40.625915 -120.825894 346 29999ft 435kts
04-Feb-21 19:03 40.729903 -120.858787 346 29999ft 435kts
04-Feb-21 19:04 40.836239 -120.892532 346 29999ft 435kts
04-Feb-21 19:05 40.942363 -120.926322 346 29999ft 435kts
04-Feb-21 19:06 41.052405 -120.961477 346 29999ft 435kts
04-Feb-21 19:07 41.156551 -120.994859 346 29999ft 435kts
04-Feb-21 19:08 41.262453 -121.028916 346 29999ft 435kts
04-Feb-21 19:09 41.368737 -121.063209 346 29999ft 435kts
04-Feb-21 19:10 41.475401 -121.097742 346 29999ft 435kts
04-Feb-21 19:11 41.581274 -121.132133 346 29999ft 435kts
04-Feb-21 19:12 41.687820 -121.166861 346 29999ft 435kts
04-Feb-21 19:13 41.794360 -121.201704 346 29999ft 435kts
04-Feb-21 19:14 41.900592 -121.236566 346 29999ft 435kts
04-Feb-21 19:15 42.008774 -121.272192 346 29999ft 435kts
04-Feb-21 19:16 42.118316 -121.308394 346 29999ft 435kts
04-Feb-21 19:17 42.226574 -121.344295 346 29999ft 435kts
04-Feb-21 19:18 42.336191 -121.380777 346 29999ft 435kts
04-Feb-21 19:19 42.447560 -121.417976 346 29999ft 435kts
04-Feb-21 19:20 42.564302 -121.457116 346 29999ft 435kts
04-Feb-21 19:21 42.677603 -121.495247 346 29999ft 435kts
04-Feb-21 19:22 42.790107 -121.533254 346 29999ft 435kts
04-Feb-21 19:23 42.901230 -121.570933 346 29999ft 435kts
04-Feb-21 19:24 43.010971 -121.608277 346 29999ft 435kts
04-Feb-21 19:25 43.118446 -121.644985 346 29999ft 435kts
04-Feb-21 19:26 43.219549 -121.679638 345 29999ft 435kts
04-Feb-21 19:27 43.320836 -121.714473 345 29999ft 435kts
04-Feb-21 19:28 43.418493 -121.748173 345 29999ft 435kts
04-Feb-21 19:29 43.518487 -121.782796 345 29999ft 435kts
04-Feb-21 19:30 43.617984 -121.817364 345 29999ft 435kts
04-Feb-21 19:31 43.720502 -121.853104 345 29999ft 435kts
04-Feb-21 19:32 43.824377 -121.889449 345 29999ft 435kts
04-Feb-21 19:33 43.927555 -121.925679 345 29999ft 435kts
04-Feb-21 19:34 44.033851 -121.963137 345 29999ft 435kts
04-Feb-21 19:35 44.135246 -121.998999 345 29999ft 435kts
04-Feb-21 19:36 44.238096 -122.035504 345 29999ft 435kts
04-Feb-21 19:37 44.341228 -122.072244 345 29999ft 435kts
04-Feb-21 19:38 44.443273 -122.108719 345 29999ft 435kts
04-Feb-21 19:39 44.543355 -122.144620 345 29999ft 435kts
04-Feb-21 19:40 44.643326 -122.180613 345 29999ft 435kts
04-Feb-21 19:41 44.743045 -122.216636 345 29720ft 435kts
04-Feb-21 19:42 44.843912 -122.253263 345 29152ft 428kts
04-Feb-21 19:43 44.945897 -122.290442 345 28574ft 425kts
04-Feb-21 19:44 45.045804 -122.327006 345 28002ft 421kts
04-Feb-21 19:45 45.140298 -122.361712 345 27455ft 417kts
04-Feb-21 19:46 45.229484 -122.394579 345 26935ft 413kts
04-Feb-21 19:48 45.317178 -122.427002 345 26419ft 410kts
04-Feb-21 19:49 45.402857 -122.458780 345 25911ft 407kts
04-Feb-21 19:50 45.487916 -122.490435 345 25402ft 403kts
04-Feb-21 19:51 45.574339 -122.522706 345 24880ft 400kts
04-Feb-21 19:52 45.661013 -122.555165 345 24353ft 397kts
04-Feb-21 19:53 45.749236 -122.587727 347 24000ft 392kts
04-Feb-21 19:54 45.838750 -122.612985 350 23080ft 386kts
04-Feb-21 19:55 45.927549 -122.635698 350 22296ft 383kts
04-Feb-21 19:56 46.017454 -122.658223 349 22002ft 382kts
04-Feb-21 19:57 46.109501 -122.680916 351 21999ft 382kts
04-Feb-21 19:58 46.197118 -122.698095 352 21101ft 371kts
04-Feb-21 19:59 46.280874 -122.714521 351 19854ft 364kts
04-Feb-21 20:00 46.365091 -122.723493 358 18583ft 356kts
04-Feb-21 20:01 46.446495 -122.726697 358 17333ft 349kts
04-Feb-21 20:02 46.526179 -122.729596 358 16085ft 342kts
04-Feb-21 20:03 46.604653 -122.732430 358 14831ft 336kts
04-Feb-21 20:03 46.667166 -122.734692 358 13815ft 330kts
04-Feb-21 20:05 46.750806 -122.735173 7 12428ft 323kts
04-Feb-21 20:06 46.814287 -122.701266 32 11732ft 290kts
04-Feb-21 20:06 46.857989 -122.652816 37 11734ft 292kts
04-Feb-21 20:07 46.909802 -122.593964 37 11734ft 291kts
04-Feb-21 20:08 46.970805 -122.547415 16 11322ft 289kts
04-Feb-21 20:09 47.036204 -122.519108 16 10641ft 287kts
04-Feb-21 20:10 47.100320 -122.496322 7 9974ft 284kts
04-Feb-21 20:11 47.160013 -122.485610 6 9735ft 283kts
04-Feb-21 20:12 47.219782 -122.475421 5 9362ft 284kts
04-Feb-21 20:13 47.278671 -122.466711 5 8272ft 262kts
04-Feb-21 20:14 47.333917 -122.458280 5 7192ft 255kts
04-Feb-21 20:15 47.389184 -122.455075 359 6099ft 255kts
04-Feb-21 20:16 47.443769 -122.455334 359 5005ft 236kts
04-Feb-21 20:17 47.496232 -122.455360 359 3816ft 220kts
04-Feb-21 20:18 47.547405 -122.455855 358 3731ft 206kts
04-Feb-21 20:19 47.597566 -122.456645 359 3733ft 207kts
04-Feb-21 20:20 47.647519 -122.455483 17 3714ft 207kts
04-Feb-21 20:21 47.661961 -122.398794 94 3734ft 166kts
04-Feb-21 20:22 47.656477 -122.338673 122 3236ft 166kts
04-Feb-21 20:23 47.624314 -122.308368 171 2768ft 150kts
04-Feb-21 20:24 47.588570 -122.306646 180 2715ft 141kts
04-Feb-21 20:25 47.554555 -122.306914 180 2254ft 137kts
04-Feb-21 20:26 47.520600 -122.307312 180 1570ft 136kts
04-Feb-21 20:27 47.486577 -122.307586 180 910ft 135kts
04-Feb-21 20:28 47.454060 -122.307825 180 427ft 103kts
04-Feb-21 20:29 47.445850 -122.306819 112 395ft 15kts
04-Feb-21 20:30 47.441926 -122.306347 180 384ft 15kts
04-Feb-21 20:31 47.439896 -122.303691 87 379ft 10kts

Navigation Log

Ident Type
Flight plan parsing failed, navigation log unavailable